LIBDLIRF

Guest
Details From LIBD - Bari Palese Macchie
To LIRF - Roma Fiumicino Leonardo Da Vinci
Flight Number -
Tags generated
Created
Modified
Stats Distance 210 nm / 389 km
Max Altitude 24,500 ft / 7,468 m
Waypoints 4
Social Downloads 1
Likes 0
Share VATSIM

Download

Looking for another format? Having issues loading an existing format? Contact us
Advertisement - Login to hide

Notes

Basic altitude profile: - Ascent Rate: 2500ft/min - Ascent Speed: 250kts - Cruise Altitude: 28000ft - Cruise Speed: 420kts - Descent Rate: 1500ft/min - Descent Speed: 250kts

Route

LIBD AKAMO UL995 TEA LIRF

ID Type Via Altitude Latitude Longitude Leg Dist Tot Dist Heading (true) Name
O LIBD APT - 0 ft / 0 m 41.13787˚ 16.75832˚ - 0 nm - Bari Palese Macchie
AKAMO FIX - 24,500 ft / 7,468 m 41.19083˚ 14.65333˚ 95 nm 95 nm 273° / 271° -
TEA VOR UL995 (AWY-HI) 18,500 ft / 5,639 m 41.29665˚ 13.97055˚ 31 nm 126 nm 282° / 281° TEANO VOR-DME
O LIRF APT - 0 ft / 0 m 41.81081˚ 12.25090˚ 83 nm 209 nm 292° / 291° Roma Fiumicino Leonardo Da Vinci

Altitude Profile

Advertisement - Login to hide

Weather


0- 5 10 15 20 25 30 35+ Temperature / ° C

Clouds and Precipitation
Forecast for 2017-12-14 12:00 UTC. Updated an hour ago

Ground ~20,000 ft ~40,000 ft Winds

LIBD

Details ICAO LIBD (BRI)
Name Bari Palese Macchie
Region Italy
Timezone Europe/Rome (UTC+1.0)
Stats Elevation 177 ft / 54 m (AMSL)
Location 41.137865° 16.758318°
Runways 1
Magnetic Variation 3.737° E

METAR

LIBD 140820Z 21005KT 180V250 CAVOK 11/05 Q1016

Decode

TAF

TAF LIBD 140500Z 1406/1506 22015KT 9999 SCT030= TAF LIBP 140500Z 1406/1506 22018G28KT 9999 SCT020 BECMG 1410/1412 22015KT BECMG 1422/1424 22018G30KT

Decode

Departure Runways

ID Width Length Bearing (true) Bearing (mag) Surface Threshold Offset Overrun Length
07 148 ft / 45 m 9,262 ft / 2,823 m 69.39° 65.65° Asphalt 1,257 ft / 383 m 0 ft / 0 m
25 148 ft / 45 m 9,262 ft / 2,823 m 249.42° 245.68° Asphalt 0 ft / 0 m 194 ft / 59 m

LIRF

Details ICAO LIRF (FCO)
Name Roma Fiumicino Leonardo Da Vinci
Region Italy
Timezone Europe/Rome (UTC+1.0)
Stats Elevation 15 ft / 5 m (AMSL)
Location 41.810809° 12.250897°
Runways 3
Magnetic Variation 2.995° E

METAR

LIRF 140820Z 21016KT 9999 SCT025 BKN030 15/08 Q1016 NOSIG

Decode

TAF

TAF LIRF 140500Z 1406/1512 240185G28KT 9999 SCT040 BECMG 1410/1412 24018KT TEMPO 1412/1418 RA BECMG 1418/1421 24018G28KT TEMPO 1506/1512 4000 SHRA

Decode

Destination Runways

ID Width Length Bearing (true) Bearing (mag) Surface Threshold Offset Overrun Length
07 148 ft / 45 m 10,835 ft / 3,302 m 69.67° 66.68° Asphalt 1,365 ft / 416 m 0 ft / 0 m
16L 197 ft / 60 m 12,832 ft / 3,911 m 162.67° 159.68° Asphalt 0 ft / 0 m 0 ft / 0 m
16R 197 ft / 60 m 12,822 ft / 3,908 m 162.66° 159.67° Asphalt 0 ft / 0 m 0 ft / 0 m
25 148 ft / 45 m 10,835 ft / 3,302 m 249.70° 246.71° Asphalt 0 ft / 0 m 0 ft / 0 m
34L 197 ft / 60 m 12,822 ft / 3,908 m 342.67° 339.68° Asphalt 1,053 ft / 321 m 0 ft / 0 m
34R 197 ft / 60 m 12,832 ft / 3,911 m 342.68° 339.69° Asphalt 0 ft / 0 m 0 ft / 0 m

Approach Navaids

Runway Type Ident Frequency Range Bearing (true) Bearing (mag) Slope Elevation
16L Localiser FLL 108.10 MHz 18 nm / 33 km 162.69° 159.69° - 15 ft / 5 m (AMSL)
16L Glidescope FLL 108.10 MHz 10 nm / 19 km 162.68° 159.68° 3.00° 15 ft / 5 m (AMSL)
16R Localiser FRR 110.30 MHz 18 nm / 33 km 162.67° 159.68° - 15 ft / 5 m (AMSL)
16R Glidescope FRR 110.30 MHz 10 nm / 19 km 162.66° 159.67° 3.00° 15 ft / 5 m (AMSL)
25 Localiser FEE 110.15 MHz 18 nm / 33 km 249.67° 246.67° - 15 ft / 5 m (AMSL)
25 Glidescope FEE 110.15 MHz 10 nm / 19 km 249.68° 246.69° 3.00° 15 ft / 5 m (AMSL)
25 DME FEE 110.15 MHz 25 nm / 46 km - - - 25 ft / 8 m (AMSL)
34L Localiser ISW 108.90 MHz 18 nm / 33 km 342.66° 339.67° - 15 ft / 5 m (AMSL)
34L Glidescope ISW 108.90 MHz 10 nm / 19 km 342.66° 339.67° 3.00° 15 ft / 5 m (AMSL)
34L DME ISW 108.90 MHz 25 nm / 46 km - - - 15 ft / 5 m (AMSL)
34R Localiser FSS 111.55 MHz 18 nm / 33 km 342.67° 339.68° - 15 ft / 5 m (AMSL)
34R Glidescope FSS 111.55 MHz 10 nm / 19 km 342.68° 339.68° 3.00° 15 ft / 5 m (AMSL)
34R DME FSS 111.55 MHz 25 nm / 46 km - - - 15 ft / 5 m (AMSL)

Popular Alternatives